createdAt,value
2019-04-14T00:00:46.837Z,0.91
2019-04-14T00:01:47.483Z,0.96
2019-04-14T00:02:46.897Z,0.96
2019-04-14T00:03:47.546Z,0.92
2019-04-14T00:04:46.615Z,0.91
2019-04-14T00:05:47.288Z,0.92
2019-04-14T00:06:46.465Z,0.87
2019-04-14T00:07:47.180Z,0.96
2019-04-14T00:08:46.440Z,0.94
2019-04-14T00:09:47.459Z,1.00
2019-04-14T00:10:46.497Z,1.02
2019-04-14T00:11:46.411Z,1.00
2019-04-14T00:12:47.065Z,1.05
2019-04-14T00:13:46.386Z,0.94
2019-04-14T00:14:46.955Z,1.10
2019-04-14T00:15:49.110Z,0.98
2019-04-14T00:16:46.784Z,0.92
2019-04-14T00:17:46.343Z,0.94
2019-04-14T00:18:46.984Z,0.87
2019-04-14T00:19:47.706Z,0.92
2019-04-14T00:20:46.936Z,0.87
2019-04-14T00:21:47.524Z,0.92
2019-04-14T00:22:46.836Z,0.84
2019-04-14T00:23:46.280Z,0.88
2019-04-14T00:24:46.723Z,0.85
2019-04-14T00:25:46.257Z,0.91
2019-04-14T00:26:46.719Z,0.85
2019-04-14T00:27:47.462Z,0.92
2019-04-14T00:28:46.945Z,0.88
2019-04-14T00:29:46.210Z,0.85
2019-04-14T00:30:46.998Z,0.87
2019-04-14T00:31:46.190Z,0.90
2019-04-14T00:32:46.547Z,0.84
2019-04-14T00:33:47.453Z,0.80
2019-04-14T00:34:46.451Z,0.85
2019-04-14T00:35:47.165Z,0.85
2019-04-14T00:36:46.168Z,0.81
2019-04-14T00:37:46.636Z,0.84
2019-04-14T00:38:46.135Z,0.81
2019-04-14T00:39:46.590Z,0.82
2019-04-14T00:40:46.115Z,0.85
2019-04-14T00:41:50.910Z,0.91
2019-04-14T00:42:47.275Z,0.91
2019-04-14T00:43:46.102Z,0.99
2019-04-14T00:44:47.287Z,0.90
2019-04-14T00:45:52.725Z,0.98
2019-04-14T00:46:47.386Z,0.94
2019-04-14T00:47:55.692Z,0.94
2019-04-14T00:48:47.299Z,0.92
2019-04-14T00:49:46.314Z,0.91
2019-04-14T00:50:46.005Z,0.94
2019-04-14T00:51:46.148Z,1.05
2019-04-14T00:52:45.959Z,1.06
2019-04-14T00:53:46.711Z,0.99
2019-04-14T00:54:45.937Z,1.00
2019-04-14T00:55:46.575Z,0.99
2019-04-14T00:56:45.915Z,1.06
2019-04-14T00:57:46.304Z,1.02
2019-04-14T00:58:45.892Z,1.10
2019-04-14T00:59:46.388Z,1.10
2019-04-14T01:00:45.897Z,1.12
2019-04-14T01:01:46.022Z,1.09
2019-04-14T01:02:46.090Z,1.10
2019-04-14T01:03:45.950Z,1.06
2019-04-14T01:04:46.915Z,1.16
2019-04-14T01:05:45.981Z,1.12
2019-04-14T01:06:46.939Z,1.21
2019-04-14T01:07:45.795Z,1.17
2019-04-14T01:08:46.811Z,1.20
2019-04-14T01:09:46.393Z,1.17
2019-04-14T01:10:45.807Z,1.20
2019-04-14T01:11:46.495Z,1.08
2019-04-14T01:12:45.740Z,1.10
2019-04-14T01:13:46.244Z,1.16
2019-04-14T01:14:45.718Z,1.10
2019-04-14T01:15:57.025Z,1.06
2019-04-14T01:16:45.697Z,1.03
2019-04-14T01:17:46.087Z,1.03
2019-04-14T01:18:45.704Z,1.02
2019-04-14T01:19:46.018Z,1.00
2019-04-14T01:20:45.684Z,0.94
2019-04-14T01:21:45.794Z,0.94
2019-04-14T01:22:46.708Z,0.92
2019-04-14T01:23:45.619Z,0.96
2019-04-14T01:24:46.755Z,0.98
2019-04-14T01:25:45.631Z,0.85
2019-04-14T01:26:46.392Z,0.91
2019-04-14T01:27:45.574Z,0.96
2019-04-14T01:28:46.152Z,0.90
2019-04-14T01:29:45.552Z,0.90
2019-04-14T01:30:45.842Z,0.96
2019-04-14T01:31:45.561Z,0.87
2019-04-14T01:32:45.809Z,0.94
2019-04-14T01:33:45.508Z,0.98
2019-04-14T01:34:45.591Z,0.96
2019-04-14T01:35:46.619Z,0.91
2019-04-14T01:36:45.506Z,0.94
2019-04-14T01:37:46.453Z,0.92
2019-04-14T01:38:45.454Z,0.92
2019-04-14T01:39:46.026Z,0.94
2019-04-14T01:40:46.573Z,0.91
2019-04-14T01:41:45.673Z,0.92
2019-04-14T01:42:46.368Z,0.96
2019-04-14T01:43:45.399Z,1.02
2019-04-14T01:44:46.014Z,1.02
2019-04-14T01:45:58.978Z,1.08
2019-04-14T01:46:47.548Z,0.94
2019-04-14T01:47:45.356Z,1.02
2019-04-14T01:48:45.457Z,1.00
2019-04-14T01:49:46.539Z,0.96
2019-04-14T01:50:45.329Z,1.05
2019-04-14T01:51:46.353Z,0.99
2019-04-14T01:52:45.798Z,0.96
2019-04-14T01:53:45.290Z,0.98
2019-04-14T01:54:45.411Z,0.99
2019-04-14T01:55:46.236Z,1.06
2019-04-14T01:56:45.281Z,1.10
2019-04-14T01:57:45.967Z,1.13
2019-04-14T01:58:45.235Z,1.03
2019-04-14T01:59:46.017Z,1.10
2019-04-14T02:00:45.218Z,1.18
2019-04-14T02:01:45.673Z,1.16
2019-04-14T02:02:45.192Z,1.20
2019-04-14T02:03:45.539Z,1.24
2019-04-14T02:04:46.184Z,1.24
2019-04-14T02:05:45.355Z,1.23
2019-04-14T02:06:46.228Z,1.34
2019-04-14T02:07:45.214Z,1.24
2019-04-14T02:08:45.856Z,1.27
2019-04-14T02:09:45.115Z,1.24
2019-04-14T02:10:45.598Z,1.20
2019-04-14T02:11:45.119Z,1.21
2019-04-14T02:12:45.256Z,1.24
2019-04-14T02:13:46.341Z,1.24
2019-04-14T02:14:45.199Z,1.26
2019-04-14T02:15:46.227Z,1.24
2019-04-14T02:16:50.402Z,1.10
2019-04-14T02:17:46.061Z,1.27
2019-04-14T02:18:45.016Z,1.23
2019-04-14T02:19:45.982Z,1.28
2019-04-14T02:20:44.999Z,1.21
2019-04-14T02:21:45.652Z,1.26
2019-04-14T02:22:46.216Z,1.31
2019-04-14T02:23:45.385Z,1.31
2019-04-14T02:24:46.022Z,1.38
2019-04-14T02:25:45.075Z,1.28
2019-04-14T02:26:45.936Z,1.38
2019-04-14T02:27:45.125Z,1.36
2019-04-14T02:28:46.070Z,1.34
2019-04-14T02:29:45.142Z,1.44
2019-04-14T02:30:53.655Z,1.41
2019-04-14T02:33:13.849Z,1.45
2019-04-14T02:34:17.056Z,1.39
2019-04-14T02:35:13.270Z,1.44
2019-04-14T02:36:26.999Z,1.41
2019-04-14T02:37:23.736Z,1.41
2019-04-14T02:39:15.602Z,1.49
2019-04-14T02:42:17.376Z,1.38
2019-04-14T02:43:22.511Z,1.23
2019-04-14T02:44:12.511Z,1.30
2019-04-14T02:45:19.337Z,1.21
2019-04-14T02:46:12.212Z,1.20
2019-04-14T02:48:35.348Z,1.09
2019-04-14T02:49:16.041Z,1.12
2019-04-14T02:51:14.466Z,1.21
2019-04-14T02:52:12.639Z,1.17
2019-04-14T02:53:19.091Z,1.20
2019-04-14T02:54:13.506Z,1.20
2019-04-14T02:55:12.229Z,1.20
2019-04-14T02:56:30.827Z,1.35
2019-04-14T02:57:20.488Z,1.35
2019-04-14T02:58:10.252Z,1.44
2019-04-14T02:59:13.240Z,1.31
2019-04-14T03:00:18.824Z,1.34
2019-04-14T03:01:19.481Z,1.39
2019-04-14T03:03:16.002Z,1.46
2019-04-14T03:04:13.448Z,1.42
2019-04-14T03:05:13.259Z,1.41
2019-04-14T03:07:14.310Z,1.48
2019-04-14T03:08:20.363Z,1.46
2019-04-14T03:10:13.083Z,1.42
2019-04-14T03:11:11.775Z,1.49
2019-04-14T03:12:10.713Z,1.41
2019-04-14T03:13:15.893Z,1.42
2019-04-14T03:15:22.244Z,1.46
2019-04-14T03:16:17.875Z,1.46
2019-04-14T03:18:26.390Z,1.35
2019-04-14T03:19:11.830Z,1.28
2019-04-14T03:21:03.625Z,1.39
2019-04-14T03:21:15.553Z,1.34
2019-04-14T03:22:23.761Z,1.36
2019-04-14T03:24:12.998Z,1.39
2019-04-14T03:25:00.616Z,1.44
2019-04-14T03:26:05.015Z,1.48
2019-04-14T03:27:20.266Z,1.52
2019-04-14T03:28:12.219Z,1.55
2019-04-14T03:29:13.163Z,1.55
2019-04-14T03:30:36.436Z,1.60
2019-04-14T03:32:28.858Z,1.62
2019-04-14T03:34:30.173Z,1.67
2019-04-14T03:35:36.001Z,1.56
2019-04-14T03:36:44.272Z,1.56
2019-04-14T03:38:17.082Z,1.49
2019-04-14T03:39:05.978Z,1.45
2019-04-14T03:40:15.924Z,1.45
2019-04-14T03:42:08.687Z,1.36
2019-04-14T03:43:19.560Z,1.30
2019-04-14T03:44:09.839Z,1.28
2019-04-14T03:45:16.670Z,1.27
2019-04-14T03:46:37.046Z,1.28
2019-04-14T03:47:15.161Z,1.28
2019-04-14T03:49:14.077Z,1.41
2019-04-14T03:51:24.483Z,1.38
2019-04-14T03:52:31.621Z,1.39
2019-04-14T03:53:18.879Z,1.57
2019-04-14T03:54:04.530Z,1.57
2019-04-14T03:55:04.175Z,1.57
2019-04-14T03:55:49.315Z,1.60
2019-04-14T03:56:44.275Z,1.69
2019-04-14T03:57:43.928Z,1.63
2019-04-14T03:58:44.429Z,1.73
2019-04-14T03:59:43.907Z,1.67
2019-04-14T04:00:44.362Z,1.74
2019-04-14T04:01:43.886Z,1.77
2019-04-14T04:02:44.451Z,1.74
2019-04-14T04:03:43.865Z,1.81
2019-04-14T04:04:44.497Z,1.91
2019-04-14T04:05:43.840Z,1.87
2019-04-14T04:06:44.263Z,1.78
2019-04-14T04:07:43.823Z,1.67
2019-04-14T04:08:44.128Z,1.74
2019-04-14T04:09:43.819Z,1.73
2019-04-14T04:10:44.305Z,1.77
2019-04-14T04:11:43.781Z,1.74
2019-04-14T04:12:44.368Z,1.71
2019-04-14T04:13:43.766Z,1.71
2019-04-14T04:14:44.222Z,1.71
2019-04-14T04:15:43.729Z,1.71
2019-04-14T04:16:43.975Z,1.66
2019-04-14T04:17:43.712Z,1.67
2019-04-14T04:18:50.896Z,1.71
2019-04-14T04:19:44.781Z,1.69
2019-04-14T04:20:43.677Z,1.77
2019-04-14T04:21:44.443Z,1.81
2019-04-14T04:22:43.653Z,1.87
2019-04-14T04:23:44.669Z,1.71
2019-04-14T04:24:43.699Z,1.63
2019-04-14T04:25:44.432Z,1.74
2019-04-14T04:26:43.623Z,1.69
2019-04-14T04:27:44.025Z,1.77
2019-04-14T04:28:43.589Z,1.66
2019-04-14T04:29:44.076Z,1.66
2019-04-14T04:30:44.671Z,1.69
2019-04-14T04:31:43.928Z,1.71
2019-04-14T04:32:44.581Z,1.69
2019-04-14T04:33:43.703Z,1.71
2019-04-14T04:34:44.559Z,1.75
2019-04-14T04:35:43.658Z,1.71
2019-04-14T04:36:44.216Z,1.78
2019-04-14T04:37:43.494Z,1.78
2019-04-14T04:38:44.250Z,1.84
2019-04-14T04:39:43.493Z,1.89
2019-04-14T04:40:44.011Z,1.85
2019-04-14T04:41:43.446Z,1.92
2019-04-14T04:42:43.711Z,1.99
2019-04-14T04:43:43.425Z,2.01
2019-04-14T04:44:44.204Z,2.00
2019-04-14T04:45:43.404Z,1.92
2019-04-14T04:46:43.822Z,2.01
2019-04-14T04:47:43.383Z,2.00
2019-04-14T04:48:43.692Z,1.99
2019-04-14T04:49:44.605Z,2.07
2019-04-14T04:50:43.348Z,2.03
2019-04-14T04:51:44.261Z,2.01
2019-04-14T04:52:43.326Z,1.87
2019-04-14T04:53:44.032Z,1.85
2019-04-14T04:54:43.311Z,1.93
2019-04-14T04:55:43.895Z,1.95
2019-04-14T04:56:43.280Z,1.78
2019-04-14T04:57:43.803Z,1.74
2019-04-14T04:58:43.491Z,1.80
2019-04-14T04:59:43.261Z,1.81
2019-04-14T05:00:44.171Z,1.91
2019-04-14T05:01:43.227Z,1.80
2019-04-14T05:02:43.899Z,1.77
2019-04-14T05:03:43.205Z,1.71
2019-04-14T05:04:43.817Z,1.62
2019-04-14T05:05:43.206Z,1.62
2019-04-14T05:06:43.732Z,1.66
2019-04-14T05:07:43.166Z,1.69
2019-04-14T05:08:43.513Z,1.71
2019-04-14T05:09:43.140Z,1.59
2019-04-14T05:10:43.623Z,1.75
2019-04-14T05:11:43.118Z,1.71
2019-04-14T05:12:43.577Z,1.69
2019-04-14T05:13:43.095Z,1.78
2019-04-14T05:14:43.455Z,1.80
2019-04-14T05:15:43.096Z,1.84
2019-04-14T05:16:44.011Z,1.78
2019-04-14T05:17:43.151Z,1.82
2019-04-14T05:18:44.094Z,1.92
2019-04-14T05:19:43.600Z,1.97
2019-04-14T05:20:44.116Z,1.99
2019-04-14T05:21:43.137Z,1.97
2019-04-14T05:22:43.964Z,2.12
2019-04-14T05:23:43.181Z,2.00
2019-04-14T05:24:43.971Z,2.17
2019-04-14T05:25:43.068Z,1.97
2019-04-14T05:26:43.801Z,2.07
2019-04-14T05:27:43.096Z,2.15
2019-04-14T05:28:43.832Z,2.11
2019-04-14T05:29:43.085Z,2.10
2019-04-14T05:30:43.632Z,2.14
2019-04-14T05:31:42.900Z,2.11
2019-04-14T05:32:43.470Z,2.00
2019-04-14T05:33:42.880Z,2.01
2019-04-14T05:34:43.343Z,2.06
2019-04-14T05:35:42.879Z,2.10
2019-04-14T05:36:43.278Z,2.10
2019-04-14T05:37:42.834Z,2.19
2019-04-14T05:38:42.901Z,2.18
2019-04-14T05:39:43.947Z,2.18
2019-04-14T05:40:42.935Z,2.22
2019-04-14T05:41:54.998Z,2.22
2019-04-14T05:42:42.823Z,2.21
2019-04-14T05:43:49.743Z,2.18
2019-04-14T05:44:42.758Z,2.29
2019-04-14T05:45:43.698Z,2.18
2019-04-14T05:46:42.738Z,2.15
2019-04-14T05:47:43.649Z,2.19
2019-04-14T05:48:42.712Z,2.22
2019-04-14T05:49:46.884Z,2.21
2019-04-14T05:50:42.733Z,2.22
2019-04-14T05:51:43.678Z,2.24
2019-04-14T05:52:42.669Z,2.24
2019-04-14T05:53:43.803Z,2.24
2019-04-14T05:54:42.646Z,2.29
2019-04-14T05:55:43.744Z,2.30
2019-04-14T05:56:42.647Z,2.28
2019-04-14T05:57:43.704Z,2.32
2019-04-14T05:58:42.602Z,2.21
2019-04-14T05:59:42.592Z,2.19
2019-04-14T06:00:43.698Z,2.24
2019-04-14T06:01:42.592Z,2.28
2019-04-14T06:02:42.587Z,2.21
2019-04-14T06:03:43.237Z,2.22
2019-04-14T06:04:42.537Z,2.25
2019-04-14T06:05:42.841Z,2.28
2019-04-14T06:06:42.541Z,2.19
2019-04-14T06:07:42.503Z,2.18
2019-04-14T06:08:42.498Z,2.14
2019-04-14T06:09:42.499Z,2.25
2019-04-14T06:10:42.477Z,2.32
2019-04-14T06:11:42.483Z,2.28
2019-04-14T06:12:42.448Z,2.25
2019-04-14T06:13:42.439Z,2.21
2019-04-14T06:14:42.438Z,2.24
2019-04-14T06:15:42.459Z,2.22
2019-04-14T06:16:42.428Z,2.28
2019-04-14T06:17:42.394Z,2.24
2019-04-14T06:18:42.420Z,2.33
2019-04-14T06:19:42.376Z,2.37
2019-04-14T06:20:42.369Z,2.37
2019-04-14T06:21:42.378Z,2.36
2019-04-14T06:22:42.340Z,2.37
2019-04-14T06:23:42.328Z,2.53
2019-04-14T06:24:42.318Z,2.43
2019-04-14T06:25:42.316Z,2.50
2019-04-14T06:26:42.320Z,2.51
2019-04-14T06:27:42.287Z,2.48
2019-04-14T06:28:42.278Z,2.58
2019-04-14T06:29:42.300Z,2.58
2019-04-14T06:30:42.253Z,2.57
2019-04-14T06:31:42.264Z,2.66
2019-04-14T06:32:42.231Z,2.68
2019-04-14T06:33:42.220Z,2.63
2019-04-14T06:34:42.207Z,2.72
2019-04-14T06:35:42.197Z,2.76
2019-04-14T06:36:42.212Z,2.81
2019-04-14T06:37:42.183Z,2.84
2019-04-14T06:38:42.166Z,2.93
2019-04-14T06:39:42.152Z,2.93
2019-04-14T06:40:42.151Z,2.97
2019-04-14T06:41:42.155Z,2.94
2019-04-14T06:42:42.122Z,3.02
2019-04-14T06:43:48.675Z,3.07
2019-04-14T06:44:42.105Z,3.08
2019-04-14T06:45:42.095Z,3.05
2019-04-14T06:46:42.100Z,3.08
2019-04-14T06:47:42.069Z,3.17
2019-04-14T06:48:42.056Z,3.15
2019-04-14T06:49:48.849Z,3.15
2019-04-14T06:50:42.036Z,3.27
2019-04-14T06:51:42.043Z,3.36
2019-04-14T06:52:42.018Z,3.29
2019-04-14T06:53:42.007Z,3.44
2019-04-14T06:54:41.989Z,3.41
2019-04-14T06:55:41.980Z,3.55
2019-04-14T06:56:41.988Z,3.55
2019-04-14T06:57:41.955Z,3.64
2019-04-14T06:58:41.995Z,3.64
2019-04-14T06:59:41.933Z,3.67
2019-04-14T07:00:41.923Z,3.66
2019-04-14T07:01:41.934Z,3.67
2019-04-14T07:02:41.901Z,3.76
2019-04-14T07:03:41.887Z,3.70
2019-04-14T07:04:41.879Z,3.73
2019-04-14T07:05:41.883Z,3.74
2019-04-14T07:06:41.903Z,3.74
2019-04-14T07:07:41.845Z,3.85
2019-04-14T07:08:41.833Z,3.84
2019-04-14T07:09:41.840Z,3.81
2019-04-14T07:10:41.813Z,3.82
2019-04-14T07:11:41.828Z,3.84
2019-04-14T07:12:43.202Z,3.82
2019-04-14T07:13:41.775Z,3.78
2019-04-14T07:14:41.768Z,3.90
2019-04-14T07:15:41.756Z,3.94
2019-04-14T07:16:41.857Z,3.82
2019-04-14T07:17:41.752Z,3.74
2019-04-14T07:18:41.787Z,3.84
2019-04-14T07:19:42.010Z,3.90
2019-04-14T07:20:41.708Z,3.80
2019-04-14T07:21:41.684Z,3.98
2019-04-14T07:22:41.697Z,3.98
2019-04-14T07:23:41.693Z,4.03
2019-04-14T07:24:41.696Z,4.05
2019-04-14T07:25:41.639Z,4.16
2019-04-14T07:26:41.629Z,4.17
2019-04-14T07:27:41.642Z,4.27
2019-04-14T07:28:41.609Z,4.30
2019-04-14T07:29:41.596Z,4.38
2019-04-14T07:30:41.590Z,4.41
2019-04-14T07:31:41.577Z,4.51
2019-04-14T07:32:41.589Z,4.59
2019-04-14T07:33:41.550Z,4.60
2019-04-14T07:34:41.539Z,4.56
2019-04-14T07:35:41.529Z,4.66
2019-04-14T07:36:41.517Z,4.71
2019-04-14T07:37:41.530Z,4.71
2019-04-14T07:38:41.494Z,4.71
2019-04-14T07:39:41.484Z,4.60
2019-04-14T07:40:41.474Z,4.63
2019-04-14T07:41:41.461Z,4.64
2019-04-14T07:42:41.476Z,4.77
2019-04-14T07:43:41.442Z,4.77
2019-04-14T07:44:41.427Z,4.93
2019-04-14T07:45:41.418Z,4.93
2019-04-14T07:46:41.405Z,5.00
2019-04-14T07:47:41.418Z,4.98
2019-04-14T07:48:41.384Z,5.16
2019-04-14T07:49:41.371Z,5.21
2019-04-14T07:50:41.359Z,5.21
2019-04-14T07:51:41.349Z,5.29
2019-04-14T07:52:41.366Z,5.33
2019-04-14T07:53:41.334Z,5.34
2019-04-14T07:54:41.537Z,5.40
2019-04-14T07:55:41.304Z,5.50
2019-04-14T07:56:41.302Z,5.52
2019-04-14T07:57:41.306Z,5.41
2019-04-14T07:58:41.270Z,5.55
2019-04-14T07:59:41.288Z,5.67
2019-04-14T08:00:41.250Z,5.66
2019-04-14T08:01:41.243Z,5.75
2019-04-14T08:02:41.249Z,5.82
2019-04-14T08:03:41.215Z,5.90
2019-04-14T08:04:41.208Z,5.95
2019-04-14T08:05:41.222Z,6.05
2019-04-14T08:06:41.183Z,6.08
2019-04-14T08:07:41.192Z,6.00
2019-04-14T08:08:41.162Z,6.12
2019-04-14T08:09:41.146Z,6.05
2019-04-14T08:10:41.134Z,6.15
2019-04-14T08:11:41.124Z,6.12
2019-04-14T08:12:41.163Z,6.35
2019-04-14T08:13:41.207Z,6.31
2019-04-14T08:14:41.711Z,6.37
2019-04-14T08:15:41.081Z,6.53
2019-04-14T08:16:41.072Z,6.60
2019-04-14T08:17:43.527Z,6.71
2019-04-14T08:18:41.055Z,6.81
2019-04-14T08:19:41.036Z,7.03
2019-04-14T08:20:41.024Z,7.04
2019-04-14T08:21:41.017Z,7.06
2019-04-14T08:22:41.030Z,7.28
2019-04-14T08:23:40.990Z,7.33
2019-04-14T08:24:41.002Z,7.42
2019-04-14T08:25:40.994Z,7.54
2019-04-14T08:26:40.957Z,7.61
2019-04-14T08:27:40.970Z,7.73
2019-04-14T08:28:40.941Z,7.88
2019-04-14T08:29:40.990Z,7.88
2019-04-14T08:30:40.929Z,7.96
2019-04-14T08:31:40.904Z,7.96
2019-04-14T08:32:40.924Z,7.96
2019-04-14T08:33:40.888Z,7.99
2019-04-14T08:34:41.133Z,8.05
2019-04-14T08:35:40.860Z,8.14
2019-04-14T08:36:40.845Z,8.26
2019-04-14T08:37:40.862Z,8.41
2019-04-14T08:38:40.871Z,8.49
2019-04-14T08:39:40.817Z,8.63
2019-04-14T08:40:40.806Z,8.71
2019-04-14T08:41:40.800Z,8.72
2019-04-14T08:42:40.805Z,8.83
2019-04-14T08:43:40.767Z,8.85
2019-04-14T08:44:40.757Z,9.01
2019-04-14T08:45:40.765Z,8.85
2019-04-14T08:46:40.751Z,8.92
2019-04-14T08:47:40.749Z,8.81
2019-04-14T08:48:40.715Z,8.75
2019-04-14T08:49:40.723Z,8.86
2019-04-14T08:50:40.688Z,8.98
2019-04-14T08:51:40.683Z,8.99
2019-04-14T08:52:40.695Z,9.16
2019-04-14T08:53:40.657Z,9.19
2019-04-14T08:54:40.646Z,9.01
2019-04-14T08:55:40.632Z,9.19
2019-04-14T08:56:40.642Z,9.24
2019-04-14T08:57:40.644Z,9.26
2019-04-14T08:58:40.609Z,9.27
2019-04-14T08:59:40.590Z,9.37
2019-04-14T09:00:40.577Z,9.42
2019-04-14T09:01:40.566Z,9.47
2019-04-14T09:02:40.596Z,9.36
2019-04-14T09:03:40.547Z,9.44
2019-04-14T09:04:40.533Z,9.44
2019-04-14T09:05:40.524Z,9.54
2019-04-14T09:06:40.510Z,9.60
2019-04-14T09:07:40.499Z,9.63
2019-04-14T09:08:40.512Z,9.60
2019-04-14T09:09:40.481Z,9.70
2019-04-14T09:10:40.617Z,9.80
2019-04-14T09:11:40.664Z,9.87
2019-04-14T09:12:40.841Z,9.85
2019-04-14T09:13:40.766Z,9.77
2019-04-14T09:14:40.424Z,9.73
2019-04-14T09:15:40.411Z,9.85
2019-04-14T09:16:40.402Z,9.83
2019-04-14T09:17:40.408Z,9.93
2019-04-14T09:18:40.406Z,9.98
2019-04-14T09:19:41.558Z,10.06
2019-04-14T09:20:51.736Z,10.16
2019-04-14T09:21:40.359Z,10.20
2019-04-14T09:22:40.333Z,10.23
2019-04-14T09:23:40.384Z,10.38
2019-04-14T09:24:40.339Z,10.39
2019-04-14T09:25:40.307Z,10.52
2019-04-14T09:26:40.289Z,10.54
2019-04-14T09:27:40.281Z,10.49
2019-04-14T09:28:40.288Z,10.55
2019-04-14T09:29:40.254Z,10.57
2019-04-14T09:30:40.243Z,10.61
2019-04-14T09:31:40.235Z,10.68
2019-04-14T09:32:40.222Z,10.86
2019-04-14T09:33:40.234Z,10.80
2019-04-14T09:34:40.876Z,10.65
2019-04-14T09:35:40.196Z,10.76
2019-04-14T09:36:40.182Z,10.75
2019-04-14T09:37:40.166Z,10.82
2019-04-14T09:38:40.176Z,10.87
2019-04-14T09:39:40.145Z,10.83
2019-04-14T09:40:40.131Z,11.01
2019-04-14T09:41:40.124Z,11.13
2019-04-14T09:42:40.110Z,11.13
2019-04-14T09:43:40.123Z,11.15
2019-04-14T09:44:40.091Z,11.13
2019-04-14T09:45:40.081Z,11.16
2019-04-14T09:46:40.069Z,11.27
2019-04-14T09:47:40.054Z,11.22
2019-04-14T09:48:42.819Z,11.22
2019-04-14T09:49:40.031Z,11.25
2019-04-14T09:50:40.070Z,11.34
2019-04-14T09:51:40.011Z,11.37
2019-04-14T09:52:40.007Z,11.48
2019-04-14T09:53:40.027Z,11.64
2019-04-14T09:54:39.980Z,11.54
2019-04-14T09:55:39.970Z,11.64
2019-04-14T09:56:39.957Z,11.74
2019-04-14T09:57:39.942Z,11.87
2019-04-14T09:58:39.963Z,11.71
2019-04-14T09:59:39.925Z,11.77
2019-04-14T10:00:39.920Z,11.84
2019-04-14T10:01:39.898Z,11.95
2019-04-14T10:02:39.887Z,12.00
2019-04-14T10:03:39.903Z,12.23
2019-04-14T10:04:39.864Z,12.30
2019-04-14T10:05:39.859Z,12.32
2019-04-14T10:06:40.967Z,12.36
2019-04-14T10:07:39.837Z,12.54
2019-04-14T10:08:39.844Z,12.59
2019-04-14T10:09:39.835Z,12.51
2019-04-14T10:10:39.828Z,12.54
2019-04-14T10:11:48.393Z,12.59
2019-04-14T10:12:39.779Z,12.72
2019-04-14T10:13:39.787Z,12.71
2019-04-14T10:14:39.751Z,12.61
2019-04-14T10:15:39.741Z,12.68
2019-04-14T10:16:39.734Z,12.76
2019-04-14T10:17:39.722Z,12.79
2019-04-14T10:18:39.735Z,12.96
2019-04-14T10:19:39.774Z,13.08
2019-04-14T10:20:39.785Z,13.20
2019-04-14T10:21:39.679Z,13.40
2019-04-14T10:22:39.668Z,13.76
2019-04-14T10:23:39.686Z,13.98
2019-04-14T10:24:39.639Z,14.12
2019-04-14T10:25:39.632Z,14.44
2019-04-14T10:26:39.635Z,14.67
2019-04-14T10:27:39.665Z,14.86
2019-04-14T10:28:39.622Z,15.08
2019-04-14T10:29:39.597Z,15.25
2019-04-14T10:30:39.575Z,15.62
2019-04-14T10:31:39.567Z,15.91
2019-04-14T10:32:39.560Z,16.26
2019-04-14T10:33:39.565Z,16.42
2019-04-14T10:34:39.547Z,16.55
2019-04-14T10:35:39.586Z,16.70
2019-04-14T10:36:39.513Z,16.87
2019-04-14T10:37:39.505Z,17.02
2019-04-14T10:38:39.514Z,17.04
2019-04-14T10:39:39.480Z,17.25
2019-04-14T10:40:39.472Z,17.30
2019-04-14T10:41:39.463Z,17.09
2019-04-14T10:42:39.445Z,16.87
2019-04-14T10:43:39.470Z,17.20
2019-04-14T10:44:39.424Z,17.73
2019-04-14T10:45:39.414Z,18.20
2019-04-14T10:46:39.402Z,18.57
2019-04-14T10:47:39.395Z,18.63
2019-04-14T10:48:39.377Z,19.01
2019-04-14T10:49:39.390Z,19.17
2019-04-14T10:50:39.357Z,19.75
2019-04-14T10:51:39.346Z,19.26
2019-04-14T10:52:39.334Z,18.66
2019-04-14T10:53:39.336Z,19.77
2019-04-14T10:54:39.338Z,20.49
2019-04-14T10:55:39.307Z,20.49
2019-04-14T10:56:39.291Z,21.11
2019-04-14T10:57:39.283Z,22.01
2019-04-14T10:58:39.278Z,22.85
2019-04-14T10:59:39.295Z,22.76
2019-04-14T11:00:39.250Z,22.85
2019-04-14T11:01:39.239Z,22.85
2019-04-14T11:02:39.229Z,21.93
2019-04-14T11:03:39.225Z,21.56
2019-04-14T11:04:39.253Z,20.70
2019-04-14T11:05:39.201Z,20.12
2019-04-14T11:06:39.193Z,19.72
2019-04-14T11:07:39.182Z,20.44
2019-04-14T11:08:39.165Z,21.19
2019-04-14T11:09:39.175Z,20.14
2019-04-14T11:10:39.143Z,19.63
2019-04-14T11:11:39.136Z,20.74
2019-04-14T11:12:39.124Z,21.35
2019-04-14T11:13:39.114Z,20.98
2019-04-14T11:14:39.123Z,20.50
2019-04-14T11:15:39.114Z,19.92
2019-04-14T11:16:39.081Z,19.31
2019-04-14T11:17:39.072Z,19.52
2019-04-14T11:18:39.060Z,20.42
2019-04-14T11:19:39.073Z,21.65
2019-04-14T11:20:39.044Z,21.94
2019-04-14T11:21:42.700Z,20.93
2019-04-14T11:22:39.020Z,19.86
2019-04-14T11:23:39.005Z,19.16
2019-04-14T11:24:39.017Z,18.88
2019-04-14T11:25:38.984Z,18.61
2019-04-14T11:26:38.976Z,18.60
2019-04-14T11:27:38.974Z,18.13
2019-04-14T11:28:38.955Z,17.76
2019-04-14T11:29:38.968Z,17.54
2019-04-14T11:30:38.931Z,17.14
2019-04-14T11:31:38.923Z,17.02
2019-04-14T11:32:38.910Z,16.87
2019-04-14T11:33:38.901Z,16.82
2019-04-14T11:34:38.912Z,17.84
2019-04-14T11:35:38.883Z,18.05
2019-04-14T11:36:38.866Z,17.68
2019-04-14T11:37:38.857Z,18.49
2019-04-14T11:38:38.849Z,19.86
2019-04-14T11:39:38.868Z,19.74
2019-04-14T11:40:38.845Z,20.89
2019-04-14T11:41:38.824Z,21.23
2019-04-14T11:42:38.819Z,21.50
2019-04-14T11:43:38.802Z,22.40
2019-04-14T11:44:38.808Z,21.50
2019-04-14T11:45:38.780Z,20.98
2019-04-14T11:46:38.766Z,20.11
2019-04-14T11:47:38.749Z,19.68
2019-04-14T11:48:38.738Z,19.24
2019-04-14T11:49:38.754Z,18.70
2019-04-14T11:50:38.722Z,17.73
2019-04-14T11:51:39.499Z,17.25
2019-04-14T11:52:38.699Z,17.02
2019-04-14T11:53:38.950Z,17.94
2019-04-14T11:54:38.701Z,19.00
2019-04-14T11:55:38.668Z,19.22
2019-04-14T11:56:38.681Z,18.71
2019-04-14T11:57:38.668Z,18.56
2019-04-14T11:58:38.638Z,19.12
2019-04-14T11:59:38.646Z,20.50
2019-04-14T12:00:38.700Z,21.73
2019-04-14T12:01:38.614Z,22.77
2019-04-14T12:02:38.594Z,22.99
2019-04-14T12:03:38.615Z,23.37
2019-04-14T12:04:38.593Z,23.88
2019-04-14T12:05:38.560Z,24.03
2019-04-14T12:06:38.547Z,24.75
2019-04-14T12:07:38.540Z,24.96
2019-04-14T12:08:38.538Z,24.75
2019-04-14T12:09:38.541Z,24.15
2019-04-14T12:10:38.506Z,23.23
2019-04-14T12:11:38.494Z,22.68
2019-04-14T12:12:38.486Z,21.82
2019-04-14T12:13:38.477Z,21.23
2019-04-14T12:14:38.487Z,21.43
2019-04-14T12:15:38.492Z,21.03
2019-04-14T12:16:38.443Z,20.55
2019-04-14T12:17:38.430Z,20.41
2019-04-14T12:18:38.421Z,20.25
2019-04-14T12:19:38.441Z,19.70
2019-04-14T12:20:38.401Z,19.30
2019-04-14T12:21:38.391Z,18.89
2019-04-14T12:22:38.383Z,18.56
2019-04-14T12:23:38.387Z,18.30
2019-04-14T12:24:38.431Z,17.83
2019-04-14T12:25:38.358Z,17.59
2019-04-14T12:26:38.342Z,17.72
2019-04-14T12:27:39.656Z,17.56
2019-04-14T12:28:38.426Z,17.72
2019-04-14T12:29:39.045Z,18.63
2019-04-14T12:30:38.317Z,19.30
2019-04-14T12:31:39.379Z,19.00
2019-04-14T12:32:38.273Z,19.56
2019-04-14T12:33:38.261Z,20.19
2019-04-14T12:34:38.268Z,21.10
2019-04-14T12:35:38.263Z,22.07
2019-04-14T12:36:38.231Z,22.70
2019-04-14T12:37:38.223Z,23.34
2019-04-14T12:38:38.210Z,23.89
2019-04-14T12:39:38.199Z,24.34
2019-04-14T12:40:38.838Z,24.22
2019-04-14T12:41:38.176Z,23.73
2019-04-14T12:42:38.169Z,22.58
2019-04-14T12:43:38.155Z,21.48
2019-04-14T12:44:38.146Z,21.04
2019-04-14T12:45:38.161Z,21.71
2019-04-14T12:46:38.128Z,21.45
2019-04-14T12:47:40.381Z,21.80
2019-04-14T12:48:38.103Z,21.82
2019-04-14T12:49:38.095Z,21.03
2019-04-14T12:50:38.105Z,20.00
2019-04-14T12:51:38.073Z,20.32
2019-04-14T12:52:38.059Z,21.32
2019-04-14T12:53:38.050Z,21.34
2019-04-14T12:54:38.039Z,20.60
2019-04-14T12:55:38.051Z,19.90
2019-04-14T12:56:38.016Z,19.31
2019-04-14T12:57:38.007Z,18.86
2019-04-14T12:58:38.009Z,18.51
2019-04-14T12:59:37.986Z,18.11
2019-04-14T13:00:37.999Z,18.06
2019-04-14T13:01:37.967Z,17.97
2019-04-14T13:02:37.953Z,18.63
2019-04-14T13:03:37.952Z,19.04
2019-04-14T13:04:37.954Z,19.04
2019-04-14T13:05:37.942Z,19.56
2019-04-14T13:06:37.911Z,19.42
2019-04-14T13:07:37.902Z,19.81
2019-04-14T13:08:37.898Z,20.14
2019-04-14T13:09:37.879Z,20.61
2019-04-14T13:10:37.890Z,21.05
2019-04-14T13:11:37.867Z,21.28
2019-04-14T13:12:37.846Z,21.53
2019-04-14T13:13:37.837Z,21.90
2019-04-14T13:14:37.891Z,22.18
2019-04-14T13:15:37.846Z,22.04
2019-04-14T13:16:37.809Z,22.01
2019-04-14T13:17:37.794Z,21.03
2019-04-14T13:18:37.783Z,20.39
2019-04-14T13:19:37.795Z,19.97
2019-04-14T13:20:37.794Z,20.56
2019-04-14T13:21:40.401Z,21.08
2019-04-14T13:22:37.744Z,21.29
2019-04-14T13:23:37.736Z,21.60
2019-04-14T13:24:37.719Z,21.62
2019-04-14T13:25:37.759Z,21.51
2019-04-14T13:26:37.700Z,21.37
2019-04-14T13:27:37.725Z,21.22
2019-04-14T13:28:37.677Z,20.56